Time;durP1;ratioP1;P1;durP2;ratioP2;P2;SDS_P1;SDS_P2;PMS_P1;PMS_P2;Temp;Humidity;BMP_temperature;BMP_pressure;BME280_temperature;BME280_humidity;BME280_pressure;Samples;Min_cycle;Max_cycle;Signal;HPM_P1;HPM_P2
2022/11/20 00:02:18;;;;;;;3.28;2.53;;;18.40;61.70;;;;;;6049902;22;47212;-72
2022/11/20 00:05:03;;;;;;;4.35;2.60;;;18.40;61.80;;;;;;6038414;22;45391;-72
2022/11/20 00:07:49;;;;;;;4.13;2.92;;;18.40;61.50;;;;;;6051603;22;45437;-72
2022/11/20 00:10:17;;;;;;;3.80;2.47;;;18.40;61.30;;;;;;6048419;22;45332;-72
2022/11/20 00:12:48;;;;;;;3.17;2.60;;;18.40;61.40;;;;;;6040884;22;47006;-73
2022/11/20 00:15:25;;;;;;;4.35;2.33;;;18.40;61.10;;;;;;6055539;22;45533;-72
2022/11/20 00:17:52;;;;;;;4.38;2.28;;;18.40;61.00;;;;;;6047351;22;45505;-72
2022/11/20 00:20:30;;;;;;;4.13;3.15;;;18.40;61.50;;;;;;6053053;22;45363;-72
2022/11/20 00:23:07;;;;;;;3.42;2.60;;;18.40;62.00;;;;;;6032879;22;46107;-72
2022/11/20 00:25:46;;;;;;;3.78;2.65;;;18.40;61.90;;;;;;6043984;22;45376;-72
2022/11/20 00:28:22;;;;;;;3.22;2.10;;;18.40;61.90;;;;;;6048415;22;45390;-72
2022/11/20 00:31:16;;;;;;;4.68;3.15;;;18.40;62.00;;;;;;6034805;22;45227;-72
2022/11/20 00:33:47;;;;;;;3.60;2.45;;;18.40;62.00;;;;;;6039074;22;46395;-72
2022/11/20 00:36:29;;;;;;;2.97;2.22;;;18.40;62.00;;;;;;6033726;22;45303;-72
2022/11/20 00:39:15;;;;;;;3.55;2.38;;;18.40;61.90;;;;;;6056462;22;45259;-72
2022/11/20 00:41:58;;;;;;;4.30;2.65;;;18.40;61.90;;;;;;6048330;22;45229;-72
2022/11/20 00:44:53;;;;;;;4.47;2.90;;;18.40;61.80;;;;;;6038883;22;46365;-72
2022/11/20 00:47:34;;;;;;;3.92;2.47;;;18.40;61.70;;;;;;6058864;22;45280;-72
2022/11/20 00:53:42;;;;;;;4.05;2.65;;;18.40;61.60;;;;;;6034983;22;45487;-72
2022/11/20 00:56:14;;;;;;;4.13;2.70;;;18.40;61.40;;;;;;6038613;22;45787;-72
2022/11/20 00:59:01;;;;;;;4.35;2.60;;;18.30;61.20;;;;;;6070153;22;46008;-72
2022/11/20 01:01:41;;;;;;;4.13;2.60;;;18.40;61.00;;;;;;6057544;22;45765;-72
2022/11/20 01:04:19;;;;;;;3.85;2.70;;;18.40;60.80;;;;;;6046166;22;45258;-72
2022/11/20 01:06:57;;;;;;;3.50;2.65;;;18.40;60.80;;;;;;6065479;22;47175;-72
2022/11/20 01:09:39;;;;;;;4.15;2.78;;;18.30;60.70;;;;;;6035214;22;45290;-71
2022/11/20 01:12:20;;;;;;;3.53;2.72;;;18.30;60.30;;;;;;6043974;22;45343;-72
2022/11/20 01:18:23;;;;;;;3.92;2.60;;;18.30;61.30;;;;;;6025330;22;45814;-72
2022/11/20 01:20:55;;;;;;;3.45;2.35;;;18.30;61.50;;;;;;6033147;22;45117;-72
2022/11/20 01:23:52;;;;;;;2.88;2.28;;;18.30;61.80;;;;;;6060899;22;45285;-72
2022/11/20 01:26:31;;;;;;;4.40;2.80;;;18.40;61.70;;;;;;6052395;22;45356;-72
2022/11/20 01:29:15;;;;;;;3.92;2.95;;;18.40;61.80;;;;;;6049077;22;47531;-72
2022/11/20 01:32:01;;;;;;;3.60;2.72;;;18.40;61.70;;;;;;6047144;22;45696;-72
2022/11/20 01:34:29;;;;;;;3.28;2.22;;;18.40;61.70;;;;;;6061366;22;45312;-72
2022/11/20 01:37:05;;;;;;;2.97;2.63;;;18.40;61.50;;;;;;6055219;22;45590;-72
2022/11/20 01:39:45;;;;;;;4.18;2.80;;;18.40;61.50;;;;;;6048817;22;46430;-72
2022/11/20 01:46:01;;;;;;;3.83;2.90;;;18.30;61.30;;;;;;6038195;22;45212;-72
2022/11/20 01:48:32;;;;;;;3.20;2.63;;;18.30;61.10;;;;;;6040431;22;45623;-72
2022/11/20 01:51:13;;;;;;;5.75;3.17;;;18.30;61.20;;;;;;6040459;22;47510;-71
2022/11/20 01:53:57;;;;;;;3.90;2.67;;;18.30;60.70;;;;;;6066147;22;45308;-72
2022/11/20 01:56:45;;;;;;;3.88;2.78;;;18.30;60.50;;;;;;6046825;22;45359;-72
2022/11/20 01:59:19;;;;;;;3.70;2.60;;;18.40;60.60;;;;;;6056570;22;45478;-72
2022/11/20 02:01:56;;;;;;;2.65;2.17;;;18.30;60.40;;;;;;6043081;22;46562;-72
2022/11/20 02:04:35;;;;;;;4.18;2.95;;;18.30;60.30;;;;;;6071046;22;45408;-72
2022/11/20 02:07:13;;;;;;;3.42;2.60;;;18.30;60.10;;;;;;6054009;22;45462;-72
2022/11/20 02:09:39;;;;;;;3.42;2.88;;;18.30;60.10;;;;;;6037491;22;45431;-72
2022/11/20 02:15:14;;;;;;;3.55;2.50;;;18.30;61.20;;;;;;6042420;22;45450;-72
2022/11/20 02:17:42;;;;;;;3.75;2.80;;;18.30;61.20;;;;;;6048702;22;45300;-72
2022/11/20 02:20:14;;;;;;;3.58;2.55;;;18.40;61.40;;;;;;6033865;22;45313;-72
2022/11/20 02:23:10;;;;;;;3.85;2.60;;;18.30;61.30;;;;;;6047110;22;46358;-72
2022/11/20 02:25:51;;;;;;;3.55;2.72;;;18.40;61.40;;;;;;6027943;22;45378;-72
2022/11/20 02:28:28;;;;;;;3.42;2.42;;;18.40;61.40;;;;;;6048411;22;45404;-72
2022/11/20 02:30:57;;;;;;;5.97;2.70;;;18.40;61.40;;;;;;6052037;22;45374;-72
2022/11/20 02:33:33;;;;;;;4.22;2.70;;;18.40;61.30;;;;;;6058558;22;46593;-72
2022/11/20 02:36:00;;;;;;;3.38;2.60;;;18.40;61.40;;;;;;6038511;22;45390;-72
2022/11/20 02:38:27;;;;;;;3.63;2.83;;;18.40;61.20;;;;;;6044623;22;45208;-72
2022/11/20 02:44:30;;;;;;;4.22;2.70;;;18.40;60.80;;;;;;6029524;22;45929;-72
2022/11/20 02:47:22;;;;;;;3.95;2.67;;;18.30;61.00;;;;;;6032021;22;45282;-72
2022/11/20 02:49:48;;;;;;;3.85;2.80;;;18.30;60.50;;;;;;6041650;22;45410;-72
2022/11/20 02:52:29;;;;;;;4.05;2.70;;;18.30;60.60;;;;;;6037300;22;45604;-72
2022/11/20 02:55:20;;;;;;;3.70;2.65;;;18.30;60.40;;;;;;6058705;22;46607;-72
2022/11/20 02:58:02;;;;;;;3.72;2.88;;;18.30;60.30;;;;;;6047674;22;45257;-72
2022/11/20 03:00:41;;;;;;;3.70;2.78;;;18.30;60.00;;;;;;6042886;22;45458;-72
2022/11/20 03:03:18;;;;;;;3.95;2.92;;;18.30;60.10;;;;;;6044791;22;45267;-72
2022/11/20 03:06:23;;;;;;;3.33;2.60;;;18.30;60.20;;;;;;6061647;22;47174;-72
2022/11/20 03:08:50;;;;;;;5.30;2.63;;;18.30;60.90;;;;;;6040783;22;45217;-72
2022/11/20 03:11:31;;;;;;;3.80;2.85;;;18.30;60.90;;;;;;6038786;22;45374;-72
2022/11/20 03:14:09;;;;;;;3.38;2.53;;;18.30;61.00;;;;;;6068365;22;45674;-71
2022/11/20 03:16:49;;;;;;;4.03;2.65;;;18.30;61.10;;;;;;6056249;22;47536;-72
2022/11/20 03:19:15;;;;;;;3.10;2.47;;;18.30;61.10;;;;;;6055369;22;45189;-72
2022/11/20 03:21:57;;;;;;;3.10;2.47;;;18.30;61.30;;;;;;6045089;22;45295;-72
2022/11/20 03:24:48;;;;;;;4.90;2.85;;;18.30;61.10;;;;;;6042207;22;45337;-72
2022/11/20 03:27:14;;;;;;;4.32;2.70;;;18.40;61.10;;;;;;6043647;22;46710;-72
2022/11/20 03:29:51;;;;;;;4.50;2.67;;;18.30;61.10;;;;;;6057659;22;45386;-72
2022/11/20 03:32:31;;;;;;;4.28;2.95;;;18.40;60.90;;;;;;6044552;22;45186;-72
2022/11/20 03:35:08;;;;;;;3.85;2.60;;;18.30;60.90;;;;;;6042226;22;45401;-72
2022/11/20 03:40:38;;;;;;;3.22;2.63;;;18.30;60.70;;;;;;6041995;22;45303;-72
2022/11/20 03:43:14;;;;;;;3.97;3.03;;;18.30;60.30;;;;;;6038976;22;45427;-72
2022/11/20 03:45:46;;;;;;;3.55;2.47;;;18.30;60.30;;;;;;6034546;22;45294;-71
2022/11/20 03:48:29;;;;;;;3.00;2.53;;;18.30;60.00;;;;;;6046397;22;46022;-72
2022/11/20 03:51:32;;;;;;;3.92;2.70;;;18.30;59.70;;;;;;6038797;22;45368;-72
2022/11/20 03:54:02;;;;;;;3.47;2.38;;;18.30;59.70;;;;;;6059116;22;45227;-72
2022/11/20 03:56:31;;;;;;;3.60;2.85;;;18.30;59.70;;;;;;6046493;22;45454;-72
2022/11/20 04:02:35;;;;;;;4.85;2.85;;;18.30;59.60;;;;;;6036392;22;45251;-72
2022/11/20 04:05:11;;;;;;;2.95;2.38;;;18.30;60.20;;;;;;6046726;22;45279;-72
2022/11/20 04:07:38;;;;;;;3.10;2.38;;;18.30;60.40;;;;;;6036424;22;45399;-72
2022/11/20 04:10:22;;;;;;;4.70;2.88;;;18.30;60.50;;;;;;6045983;22;47402;-72
2022/11/20 04:12:59;;;;;;;5.20;2.78;;;18.30;60.50;;;;;;6056102;22;45435;-72
2022/11/20 04:15:40;;;;;;;4.88;2.42;;;18.30;60.50;;;;;;6061117;22;45272;-72
2022/11/20 04:18:17;;;;;;;3.00;2.40;;;18.30;60.50;;;;;;6041850;22;45399;-72
2022/11/20 04:20:45;;;;;;;3.47;2.53;;;18.30;60.40;;;;;;6036254;22;46511;-72
2022/11/20 04:23:22;;;;;;;3.80;2.63;;;18.30;60.40;;;;;;6047870;22;45251;-72
2022/11/20 04:25:49;;;;;;;3.80;2.75;;;18.30;60.50;;;;;;6058921;22;45417;-72
2022/11/20 04:28:33;;;;;;;3.45;2.67;;;18.30;60.30;;;;;;6033666;22;45552;-72
2022/11/20 04:31:14;;;;;;;3.75;2.28;;;18.30;61.20;;;;;;6056345;22;47461;-72
2022/11/20 04:33:41;;;;;;;3.78;2.60;;;18.30;60.00;;;;;;6046865;22;45374;-72
2022/11/20 04:36:37;;;;;;;5.40;2.92;;;18.20;59.90;;;;;;6057165;22;45615;-72
2022/11/20 04:39:15;;;;;;;4.55;2.75;;;18.20;59.70;;;;;;6058824;22;45090;-72
2022/11/20 04:41:42;;;;;;;4.43;2.70;;;18.20;59.60;;;;;;6030778;22;46094;-72
2022/11/20 04:44:11;;;;;;;3.85;2.70;;;18.20;59.40;;;;;;6053437;22;45466;-72
2022/11/20 04:46:40;;;;;;;4.38;3.05;;;18.20;59.30;;;;;;6052488;22;45248;-72
2022/11/20 04:49:16;;;;;;;3.38;2.25;;;18.20;59.10;;;;;;6036744;22;45202;-72
2022/11/20 04:51:48;;;;;;;4.28;3.08;;;18.20;58.90;;;;;;6065142;22;47836;-72
2022/11/20 04:54:30;;;;;;;4.30;2.97;;;18.20;58.80;;;;;;6060882;22;45234;-72
2022/11/20 04:57:09;;;;;;;4.07;2.63;;;18.20;58.50;;;;;;6040117;22;45428;-72
2022/11/20 05:00:04;;;;;;;6.13;2.65;;;18.20;59.30;;;;;;6048486;22;45401;-72
2022/11/20 05:02:32;;;;;;;2.97;2.58;;;18.20;59.50;;;;;;6033363;22;46465;-72
2022/11/20 05:05:09;;;;;;;5.07;2.70;;;18.20;60.00;;;;;;6045191;22;45334;-72
2022/11/20 05:07:50;;;;;;;4.40;2.67;;;18.20;59.90;;;;;;6078380;22;45461;-72
2022/11/20 05:10:19;;;;;;;4.35;2.70;;;18.20;59.90;;;;;;6043824;22;45357;-72
2022/11/20 05:12:58;;;;;;;3.78;2.67;;;18.20;59.70;;;;;;6050870;22;47302;-72
2022/11/20 05:15:43;;;;;;;3.88;2.50;;;18.20;59.80;;;;;;6049290;22;45105;-72
2022/11/20 05:18:15;;;;;;;4.47;3.05;;;18.20;59.60;;;;;;6046381;22;45093;-72
2022/11/20 05:24:21;;;;;;;4.03;2.75;;;18.30;59.60;;;;;;6036759;22;45759;-72
2022/11/20 05:27:02;;;;;;;4.53;2.88;;;18.20;59.30;;;;;;6074831;22;45383;-72
2022/11/20 05:29:30;;;;;;;4.25;2.90;;;18.20;59.20;;;;;;6036560;22;45232;-72
2022/11/20 05:32:16;;;;;;;4.22;3.10;;;18.20;59.30;;;;;;6044027;22;45357;-72
2022/11/20 05:34:54;;;;;;;4.70;3.00;;;18.20;58.70;;;;;;6055118;22;47438;-72
2022/11/20 05:37:21;;;;;;;3.80;2.63;;;18.20;58.50;;;;;;6045222;22;45394;-72
2022/11/20 05:40:01;;;;;;;5.35;3.53;;;18.20;58.50;;;;;;6044618;22;45513;-72
2022/11/20 05:42:37;;;;;;;4.18;3.20;;;18.20;58.50;;;;;;6046553;22;45313;-72
2022/11/20 05:45:11;;;;;;;3.95;2.85;;;18.20;58.70;;;;;;6046724;22;46468;-72
2022/11/20 05:47:53;;;;;;;4.60;2.97;;;18.20;59.00;;;;;;6053130;22;45339;-72
2022/11/20 05:50:20;;;;;;;4.07;3.03;;;18.20;58.00;;;;;;6049531;22;45358;-72
2022/11/20 05:53:01;;;;;;;4.75;3.05;;;18.20;58.10;;;;;;6047385;22;45478;-72
2022/11/20 05:56:05;;;;;;;4.55;2.72;;;18.20;58.50;;;;;;6039931;22;46377;-72
2022/11/20 05:58:43;;;;;;;3.65;2.50;;;18.20;59.00;;;;;;6042364;22;45371;-72
2022/11/20 06:01:13;;;;;;;4.15;2.88;;;18.20;59.10;;;;;;6056822;22;45356;-72
2022/11/20 06:03:50;;;;;;;5.43;3.38;;;18.20;59.20;;;;;;6050615;22;45393;-72
2022/11/20 06:06:20;;;;;;;4.43;2.90;;;18.20;59.10;;;;;;6050309;22;47936;-72
2022/11/20 06:09:05;;;;;;;4.55;2.80;;;18.20;59.10;;;;;;6033415;22;45365;-72
2022/11/20 06:11:42;;;;;;;6.00;3.33;;;18.30;59.10;;;;;;6038903;22;45445;-72
2022/11/20 06:14:10;;;;;;;4.90;3.20;;;18.30;59.10;;;;;;6049452;22;45487;-72
2022/11/20 06:16:37;;;;;;;3.97;2.70;;;18.30;59.00;;;;;;6037488;22;47616;-72
2022/11/20 06:19:15;;;;;;;3.85;2.83;;;18.30;59.10;;;;;;6056506;22;45161;-72
2022/11/20 06:21:42;;;;;;;4.05;2.70;;;18.30;59.00;;;;;;6047509;22;45243;-72
2022/11/20 06:24:19;;;;;;;4.28;2.65;;;18.30;58.70;;;;;;6034838;22;45184;-72
2022/11/20 06:26:56;;;;;;;4.13;2.90;;;18.20;58.50;;;;;;6043255;22;46204;-72
2022/11/20 06:29:36;;;;;;;3.42;2.80;;;18.20;58.40;;;;;;6058196;22;45283;-72
2022/11/20 06:32:18;;;;;;;4.95;3.10;;;18.20;58.10;;;;;;6057449;22;45323;-72
2022/11/20 06:34:52;;;;;;;4.82;3.17;;;18.20;58.00;;;;;;6032029;22;45334;-72
2022/11/20 06:37:19;;;;;;;4.60;2.95;;;18.20;57.90;;;;;;6060944;22;46818;-72
2022/11/20 06:39:59;;;;;;;5.38;3.30;;;18.20;57.90;;;;;;6047662;22;45261;-72
2022/11/20 06:42:37;;;;;;;4.22;3.08;;;18.20;57.40;;;;;;6052967;22;45447;-72
2022/11/20 06:45:26;;;;;;;5.30;3.15;;;18.20;57.30;;;;;;6039408;22;45391;-72
2022/11/20 06:48:06;;;;;;;4.38;2.95;;;18.20;56.90;;;;;;6027971;22;46615;-72
2022/11/20 06:51:05;;;;;;;5.05;3.10;;;18.20;57.50;;;;;;6053267;22;45301;-72
2022/11/20 06:53:31;;;;;;;4.50;3.35;;;18.20;58.10;;;;;;6041720;22;45351;-72
2022/11/20 06:56:09;;;;;;;5.65;3.38;;;18.20;58.30;;;;;;6036671;22;45383;-72
2022/11/20 06:58:49;;;;;;;5.15;2.90;;;18.20;58.40;;;;;;6038705;22;46830;-72
2022/11/20 07:01:27;;;;;;;4.60;2.92;;;18.20;58.30;;;;;;6054285;22;45307;-72
2022/11/20 07:03:55;;;;;;;3.83;2.92;;;18.20;58.20;;;;;;6034807;22;45395;-72
2022/11/20 07:06:21;;;;;;;4.35;2.90;;;18.20;58.30;;;;;;6068670;22;45387;-72
2022/11/20 07:09:36;;;;;;;3.67;2.85;;;18.20;58.30;;;;;;6033830;22;46755;-72
2022/11/20 07:12:03;;;;;;;4.03;3.08;;;18.20;58.20;;;;;;6056481;22;45247;-72
2022/11/20 07:14:33;;;;;;;4.35;3.10;;;18.20;58.30;;;;;;6043696;22;45470;-73
2022/11/20 07:17:35;;;;;;;4.50;3.10;;;18.20;57.90;;;;;;6029171;22;45522;-72
2022/11/20 07:21:09;;;;;;;4.82;3.10;;;18.20;57.70;;;;;;6039064;22;46297;-72
2022/11/20 07:23:49;;;;;;;4.65;3.30;;;18.20;57.50;;;;;;6049129;22;45330;-72
2022/11/20 07:26:33;;;;;;;3.83;2.67;;;18.20;57.40;;;;;;6051514;22;45316;-72
2022/11/20 07:29:00;;;;;;;5.05;3.00;;;18.20;57.20;;;;;;6046397;22;45428;-72
2022/11/20 07:31:43;;;;;;;4.35;3.05;;;18.20;57.50;;;;;;6042753;22;46178;-72
2022/11/20 07:34:09;;;;;;;4.05;2.90;;;18.20;57.00;;;;;;6048322;22;45346;-72
2022/11/20 07:36:50;;;;;;;4.95;3.10;;;18.10;56.90;;;;;;6037927;22;45583;-72
2022/11/20 07:40:09;;;;;;;5.88;3.20;;;18.10;56.90;;;;;;6046689;22;45427;-72
2022/11/20 07:42:53;;;;;;;4.25;3.05;;;18.10;56.60;;;;;;6040488;22;46422;-72
2022/11/20 07:45:22;;;;;;;3.60;2.63;;;18.10;57.20;;;;;;6052335;22;45367;-72
2022/11/20 07:47:50;;;;;;;4.70;3.15;;;18.10;57.40;;;;;;6054960;22;45228;-72
2022/11/20 07:50:19;;;;;;;5.28;2.80;;;18.20;57.70;;;;;;6049614;22;45283;-72
2022/11/20 07:53:05;;;;;;;4.88;3.00;;;18.20;57.60;;;;;;6043862;22;47512;-72
2022/11/20 07:58:17;;;;;;;5.03;3.22;;;18.20;57.60;;;;;;6040441;22;45344;-72
2022/11/20 08:00:44;;;;;;;4.22;3.25;;;18.20;57.60;;;;;;6038081;22;45192;-72
2022/11/20 08:03:13;;;;;;;4.47;3.35;;;18.20;57.50;;;;;;6049208;22;47442;-72
2022/11/20 08:05:40;;;;;;;5.00;3.67;;;18.20;57.30;;;;;;6095616;22;45284;-70
2022/11/20 08:08:07;;;;;;;5.07;3.50;;;18.10;55.50;;;;;;6211391;22;45268;-70
2022/11/20 08:10:34;;;;;;;5.75;3.40;;;18.20;55.80;;;;;;6211722;22;45207;-71
2022/11/20 08:15:50;;;;;;;6.53;3.80;;;18.20;54.80;;;;;;6209820;22;45213;-70
2022/11/20 08:18:19;;;;;;;7.20;4.28;;;18.20;54.00;;;;;;6211767;22;45249;-70
2022/11/20 08:20:46;;;;;;;6.78;5.07;;;18.10;53.20;;;;;;6211587;22;45351;-70
2022/11/20 08:23:13;;;;;;;5.95;4.38;;;18.10;53.30;;;;;;6210077;22;47328;-71
2022/11/20 08:25:40;;;;;;;7.18;4.45;;;18.10;52.30;;;;;;6208575;22;45359;-70
2022/11/20 08:28:09;;;;;;;7.45;4.47;;;18.10;52.70;;;;;;6211432;22;45364;-71
2022/11/20 08:30:36;;;;;;;5.63;4.05;;;18.00;52.20;;;;;;6210385;22;45443;-70
2022/11/20 08:33:04;;;;;;;5.60;4.28;;;18.00;52.60;;;;;;6211002;22;46355;-70
2022/11/20 08:35:35;;;;;;;6.50;4.30;;;18.00;52.20;;;;;;6210690;22;45959;-70
2022/11/20 08:38:02;;;;;;;7.00;4.53;;;18.00;52.20;;;;;;6209421;22;45355;-70
2022/11/20 08:40:29;;;;;;;4.28;3.88;;;17.90;52.20;;;;;;6209423;22;45407;-70
2022/11/20 08:42:56;;;;;;;7.78;4.47;;;17.90;53.20;;;;;;6210717;22;45568;-70
2022/11/20 08:45:23;;;;;;;6.18;4.25;;;17.90;53.90;;;;;;6210816;22;45262;-70
2022/11/20 08:47:50;;;;;;;5.75;4.07;;;17.90;54.80;;;;;;6212057;22;45449;-70
2022/11/20 08:50:17;;;;;;;6.85;4.78;;;17.90;54.20;;;;;;6210603;22;45380;-70
2022/11/20 08:52:45;;;;;;;6.03;4.15;;;17.90;54.20;;;;;;6211772;22;46582;-71
2022/11/20 08:55:13;;;;;;;5.60;4.10;;;18.00;54.20;;;;;;6210186;22;45289;-71
2022/11/20 08:57:39;;;;;;;5.72;3.95;;;18.00;54.50;;;;;;6215411;22;45253;-70
2022/11/20 09:00:08;;;;;;;5.65;3.45;;;18.00;54.10;;;;;;6212457;22;45351;-71
2022/11/20 09:02:35;;;;;;;5.60;3.83;;;18.00;54.50;;;;;;6212323;22;45460;-70
2022/11/20 09:05:03;;;;;;;5.55;4.10;;;18.00;54.70;;;;;;6212052;22;45345;-71
2022/11/20 09:07:30;;;;;;;5.70;3.60;;;18.10;54.90;;;;;;6211753;22;45448;-71
2022/11/20 09:09:58;;;;;;;5.10;3.72;;;18.10;54.90;;;;;;6213385;22;45204;-70
2022/11/20 09:12:25;;;;;;;5.97;3.78;;;18.10;55.10;;;;;;6211118;22;46254;-70
2022/11/20 09:14:52;;;;;;;7.35;4.32;;;18.10;55.10;;;;;;6211696;22;45208;-70
2022/11/20 09:17:20;;;;;;;4.20;3.28;;;18.10;55.40;;;;;;6212805;22;45156;-70
2022/11/20 09:19:47;;;;;;;5.70;3.80;;;18.10;55.40;;;;;;6212198;22;45383;-71
2022/11/20 09:22:13;;;;;;;5.63;3.72;;;18.10;55.30;;;;;;6212855;22;47617;-70
2022/11/20 09:24:41;;;;;;;5.65;3.95;;;18.10;55.50;;;;;;6211569;22;45302;-71
2022/11/20 09:27:09;;;;;;;4.78;3.45;;;18.10;55.40;;;;;;6212861;22;45395;-70
2022/11/20 09:29:37;;;;;;;5.32;3.38;;;18.10;55.50;;;;;;6212950;22;45329;-70
2022/11/20 09:32:04;;;;;;;5.22;3.67;;;18.10;55.60;;;;;;6212006;22;46586;-70
2022/11/20 09:34:30;;;;;;;5.60;3.35;;;18.10;55.80;;;;;;6211928;22;45379;-71
2022/11/20 09:36:57;;;;;;;6.20;3.78;;;18.10;56.10;;;;;;6209956;22;45358;-70
2022/11/20 09:39:24;;;;;;;6.18;4.32;;;18.10;56.10;;;;;;6212579;22;45364;-71
2022/11/20 09:42:08;;;;;;;5.78;3.83;;;18.10;56.30;;;;;;6209983;22;46589;-71
2022/11/20 09:45:01;;;;;;;8.32;4.20;;;18.10;56.30;;;;;;6211582;22;45243;-71
2022/11/20 09:47:43;;;;;;;8.02;3.80;;;18.10;56.50;;;;;;6212896;22;45315;-70
2022/11/20 09:50:26;;;;;;;6.95;3.85;;;18.20;56.70;;;;;;6212615;22;45466;-71
2022/11/20 09:53:08;;;;;;;7.75;4.05;;;18.20;56.80;;;;;;6212969;22;46260;-70
2022/11/20 09:55:36;;;;;;;6.10;3.60;;;18.20;57.00;;;;;;6211062;22;45425;-71
2022/11/20 09:58:07;;;;;;;6.22;3.97;;;18.20;56.80;;;;;;6212735;22;45311;-71
2022/11/20 10:00:37;;;;;;;7.32;4.10;;;18.20;57.10;;;;;;6212274;22;45252;-71
2022/11/20 10:03:15;;;;;;;6.18;3.80;;;18.20;57.00;;;;;;6211703;22;46392;-70
2022/11/20 10:05:45;;;;;;;8.15;4.03;;;18.20;57.00;;;;;;6211614;22;45354;-70
2022/11/20 10:08:21;;;;;;;6.95;3.92;;;18.20;57.10;;;;;;6212542;22;45320;-70
2022/11/20 10:10:50;;;;;;;6.70;4.15;;;18.20;57.10;;;;;;6212811;22;45518;-70
2022/11/20 10:13:40;;;;;;;6.57;3.63;;;18.20;57.40;;;;;;6211227;22;45500;-71
2022/11/20 10:16:23;;;;;;;8.13;4.63;;;18.20;57.30;;;;;;6209427;22;45363;-70
2022/11/20 10:19:03;;;;;;;7.03;3.80;;;18.20;57.40;;;;;;6212419;22;45312;-70
2022/11/20 10:21:39;;;;;;;6.57;3.47;;;18.20;57.40;;;;;;6211882;22;45415;-71
2022/11/20 10:24:35;;;;;;;6.47;3.88;;;18.20;57.60;;;;;;6211425;22;48018;-70
2022/11/20 10:27:16;;;;;;;7.25;4.00;;;18.20;57.70;;;;;;6211247;22;45340;-70
2022/11/20 10:29:50;;;;;;;6.38;3.97;;;18.20;57.70;;;;;;6212279;22;45243;-70
2022/11/20 10:32:24;;;;;;;6.35;3.85;;;18.20;58.20;;;;;;6210912;22;45185;-70
2022/11/20 10:35:01;;;;;;;6.82;4.22;;;18.20;58.10;;;;;;6211708;22;46546;-71
2022/11/20 10:37:30;;;;;;;6.60;4.15;;;18.20;58.00;;;;;;6209664;22;45320;-71
2022/11/20 10:40:02;;;;;;;6.55;4.00;;;18.20;58.10;;;;;;6211522;22;45372;-71
2022/11/20 10:42:35;;;;;;;5.50;4.03;;;18.20;58.10;;;;;;6214567;22;45560;-70
2022/11/20 10:45:14;;;;;;;7.05;4.38;;;18.20;58.10;;;;;;6211842;22;45474;-70
2022/11/20 10:47:42;;;;;;;6.30;4.20;;;18.20;58.20;;;;;;6212436;22;45486;-70
2022/11/20 10:50:15;;;;;;;6.25;3.92;;;18.20;58.20;;;;;;6211948;22;45335;-71
2022/11/20 10:52:51;;;;;;;5.40;4.00;;;18.20;58.20;;;;;;6212603;22;45410;-71
2022/11/20 10:55:29;;;;;;;8.98;4.88;;;18.20;58.40;;;;;;6209378;22;48089;-71
2022/11/20 10:58:06;;;;;;;9.75;3.97;;;18.20;59.20;;;;;;6211218;22;45205;-70
2022/11/20 11:00:33;;;;;;;47.50;4.85;;;18.30;62.10;;;;;;6211367;22;45445;-70
2022/11/20 11:03:02;;;;;;;26.50;5.18;;;18.30;62.50;;;;;;6211966;22;45363;-71
2022/11/20 11:05:37;;;;;;;55.45;5.80;;;18.30;62.80;;;;;;6211298;22;46210;-70
2022/11/20 11:08:05;;;;;;;39.42;5.68;;;18.30;62.90;;;;;;6211532;22;45343;-70
2022/11/20 11:10:41;;;;;;;37.25;5.43;;;18.30;63.10;;;;;;6210420;22;45224;-70
2022/11/20 11:13:19;;;;;;;28.88;6.05;;;18.40;63.20;;;;;;6210711;22;45270;-70
2022/11/20 11:15:46;;;;;;;17.02;4.47;;;18.40;63.30;;;;;;6208563;22;45446;-69
2022/11/20 11:18:24;;;;;;;19.98;5.05;;;18.40;63.50;;;;;;6210938;22;45369;-69
2022/11/20 11:20:52;;;;;;;19.75;4.30;;;18.40;63.60;;;;;;6210421;22;45236;-71
2022/11/20 11:23:33;;;;;;;14.20;4.20;;;18.40;63.30;;;;;;6209827;22;45600;-71
2022/11/20 11:26:01;;;;;;;31.10;4.88;;;18.40;64.00;;;;;;6208695;22;45394;-70
2022/11/20 11:28:29;;;;;;;28.63;5.20;;;18.40;64.20;;;;;;6210588;22;45838;-70
2022/11/20 11:30:56;;;;;;;27.42;4.95;;;18.40;64.00;;;;;;6210235;22;45288;-69
2022/11/20 11:33:27;;;;;;;31.58;4.80;;;18.50;64.00;;;;;;6208779;22;45320;-69
2022/11/20 11:35:57;;;;;;;26.38;5.85;;;18.40;63.60;;;;;;6208435;22;47998;-70
2022/11/20 11:38:30;;;;;;;24.10;4.53;;;18.40;63.20;;;;;;6209758;22;45702;-69
2022/11/20 11:40:58;;;;;;;16.73;4.55;;;18.40;62.90;;;;;;6210593;22;45293;-70
2022/11/20 11:46:27;;;;;;;15.25;4.10;;;18.40;62.60;;;;;;6207148;22;45636;-70
2022/11/20 11:49:01;;;;;;;9.02;3.65;;;18.40;62.40;;;;;;6212392;22;45268;-70
2022/11/20 11:51:35;;;;;;;11.50;4.75;;;18.40;62.30;;;;;;6210308;22;45351;-70
2022/11/20 11:54:06;;;;;;;16.50;3.95;;;18.30;62.30;;;;;;6211612;22;45342;-69
2022/11/20 11:56:34;;;;;;;12.35;3.58;;;18.30;62.10;;;;;;6209501;22;45386;-70
2022/11/20 11:59:07;;;;;;;12.10;3.80;;;18.30;62.30;;;;;;6211589;22;45331;-70
2022/11/20 12:01:40;;;;;;;12.88;4.18;;;18.30;62.10;;;;;;6212060;22;45161;-69
2022/11/20 12:04:17;;;;;;;10.45;3.72;;;18.30;62.10;;;;;;6210842;22;45328;-71
2022/11/20 12:06:49;;;;;;;9.32;3.78;;;18.30;62.00;;;;;;6210728;22;45269;-69
2022/11/20 12:09:19;;;;;;;13.38;3.47;;;18.30;61.90;;;;;;6210779;22;45292;-70
2022/11/20 12:11:50;;;;;;;7.63;4.22;;;18.30;62.00;;;;;;6211859;22;45344;-69
2022/11/20 12:14:23;;;;;;;8.57;3.30;;;18.20;61.80;;;;;;6211138;22;45288;-70
2022/11/20 12:16:52;;;;;;;8.93;4.40;;;18.20;61.70;;;;;;6210790;22;45367;-69
2022/11/20 12:19:20;;;;;;;8.65;3.67;;;18.20;61.80;;;;;;6211591;22;45207;-69
2022/11/20 12:21:59;;;;;;;9.35;4.18;;;18.20;61.90;;;;;;6210860;22;45344;-69
2022/11/20 12:24:43;;;;;;;6.88;3.83;;;18.20;61.90;;;;;;6211201;22;45458;-70
2022/11/20 12:27:36;;;;;;;5.82;3.33;;;18.20;62.00;;;;;;6208695;22;45450;-69
2022/11/20 12:30:08;;;;;;;6.55;3.58;;;18.20;62.00;;;;;;6211933;22;45232;-69
2022/11/20 12:33:00;;;;;;;6.93;3.83;;;18.20;62.00;;;;;;6212755;22;45155;-69
2022/11/20 12:35:45;;;;;;;8.20;4.10;;;18.20;62.00;;;;;;6211410;22;45403;-69
2022/11/20 12:38:35;;;;;;;7.27;4.50;;;18.20;62.00;;;;;;6212849;22;46677;-70
2022/11/20 12:41:12;;;;;;;8.77;4.43;;;18.20;62.00;;;;;;6211607;22;45358;-70
2022/11/20 12:46:40;;;;;;;6.97;4.40;;;18.30;62.40;;;;;;6210881;22;45304;-69
2022/11/20 12:49:30;;;;;;;7.95;4.05;;;18.30;64.90;;;;;;6212095;22;46570;-69
2022/11/20 12:52:22;;;;;;;6.03;3.85;;;18.30;65.20;;;;;;6210543;22;45435;-69
2022/11/20 12:55:12;;;;;;;6.85;3.95;;;18.30;65.10;;;;;;6205920;22;45309;-70
2022/11/20 12:57:49;;;;;;;6.35;3.80;;;18.30;65.00;;;;;;6208372;22;45237;-69
2022/11/20 13:00:19;;;;;;;6.25;3.58;;;18.40;65.20;;;;;;6212607;22;46433;-70
2022/11/20 13:03:08;;;;;;;6.32;3.30;;;18.40;65.30;;;;;;6213214;22;45478;-69
2022/11/20 13:05:42;;;;;;;5.68;3.38;;;18.40;65.30;;;;;;6211466;22;45327;-70
2022/11/20 13:08:16;;;;;;;6.50;3.35;;;18.30;65.20;;;;;;6213024;22;45426;-69
2022/11/20 13:10:48;;;;;;;5.47;3.80;;;18.40;65.40;;;;;;6212031;22;46284;-69
2022/11/20 13:13:23;;;;;;;5.07;3.28;;;18.40;65.40;;;;;;6212984;22;45252;-70
2022/11/20 13:15:56;;;;;;;8.05;3.78;;;18.40;65.30;;;;;;6211415;22;45240;-69
2022/11/20 13:18:23;;;;;;;7.22;3.80;;;18.30;65.40;;;;;;6213052;22;45220;-69
2022/11/20 13:20:50;;;;;;;5.45;3.33;;;18.30;65.60;;;;;;6212476;22;46575;-69
2022/11/20 13:23:29;;;;;;;6.85;4.03;;;18.30;65.50;;;;;;6212159;22;45215;-69
2022/11/20 13:26:07;;;;;;;7.80;3.92;;;18.40;65.70;;;;;;6210830;22;45280;-69
2022/11/20 13:28:35;;;;;;;7.38;4.20;;;18.40;65.70;;;;;;6210149;22;45462;-69
2022/11/20 13:31:02;;;;;;;6.75;4.03;;;18.40;65.70;;;;;;6212504;22;46262;-69
2022/11/20 13:33:31;;;;;;;7.22;4.13;;;18.40;65.70;;;;;;6212177;22;45383;-69
2022/11/20 13:36:01;;;;;;;6.65;3.97;;;18.40;65.80;;;;;;6212457;22;45501;-69
2022/11/20 13:38:41;;;;;;;7.55;4.20;;;18.40;65.70;;;;;;6213915;22;45487;-70
2022/11/20 13:43:50;;;;;;;5.72;3.92;;;18.40;65.90;;;;;;6211175;22;45268;-69
2022/11/20 13:46:24;;;;;;;5.63;3.70;;;18.40;65.80;;;;;;6211980;22;45388;-69
2022/11/20 13:48:53;;;;;;;6.80;3.97;;;18.30;65.80;;;;;;6212837;22;45248;-70
2022/11/20 13:51:32;;;;;;;5.50;3.63;;;18.30;65.90;;;;;;6212126;22;45461;-70
2022/11/20 13:54:43;;;;;;;6.50;3.70;;;18.30;66.00;;;;;;6212403;22;45324;-70
2022/11/20 13:57:31;;;;;;;7.80;4.03;;;18.30;65.90;;;;;;6208835;22;45328;-69
2022/11/20 14:00:02;;;;;;;5.95;3.60;;;18.30;66.10;;;;;;6212157;22;45393;-69
2022/11/20 14:02:30;;;;;;;5.25;3.60;;;18.30;66.10;;;;;;6212354;22;47325;-69
2022/11/20 14:04:59;;;;;;;4.82;3.70;;;18.30;66.00;;;;;;6211476;22;45248;-69
2022/11/20 14:07:32;;;;;;;8.68;4.78;;;18.30;66.10;;;;;;6211611;22;45288;-67
2022/11/20 14:10:00;;;;;;;10.93;4.68;;;18.30;65.80;;;;;;6212535;22;45524;-69
2022/11/20 14:12:30;;;;;;;21.42;4.43;;;18.40;66.30;;;;;;6211918;22;45621;-70